Norvelt, Pennsylvania
Current Conditions -  °F | °C
As of 6:53 AM on Thursday 23 Oct 2014 (Local Time) from KAGC Reporting Station
Overcast Overcast  
Wind Chill: 41°   Ceiling: 1800
Heat Index: 46°   Visibility: 10mi
Dew Point: 39°   Wind: 9mph
Humidity: 76%   Direction: 330°NNW
Pressure: 30.12"   Gusts: NA
Location:  40.21°N, 79.5°W
Report Text: KAGC 231053Z AUTO 33008KT 10SM OVC018 08/04 A3012 RMK AO2 SLP209 T00780039 TSNO
Loading
Personal Weather Stations






























Interactive Weather Map
Tropical Storm Tracking
New forecast layout! Learn more

10-Day Weather Forecast

Advertisements
Track Severe Weather on mobile